createdAt,value
2018-06-12T00:00:50.726Z,27.1
2018-06-12T00:01:52.386Z,27.2
2018-06-12T00:02:54.045Z,26.9
2018-06-12T00:03:55.705Z,27.1
2018-06-12T00:04:57.362Z,27.7
2018-06-12T00:05:59.021Z,27.9
2018-06-12T00:07:00.696Z,28.2
2018-06-12T00:08:02.354Z,28.3
2018-06-12T00:09:04.005Z,27.6
2018-06-12T00:10:05.673Z,27.6
2018-06-12T00:11:07.332Z,28.2
2018-06-12T00:12:08.989Z,29.0
2018-06-12T00:13:10.637Z,29.2
2018-06-12T00:14:12.301Z,28.8
2018-06-12T00:15:13.953Z,29.3
2018-06-12T00:16:15.600Z,29.3
2018-06-12T00:17:17.259Z,29.0
2018-06-12T00:18:18.932Z,29.3
2018-06-12T00:19:20.582Z,29.0
2018-06-12T00:20:22.244Z,28.7
2018-06-12T00:21:23.902Z,28.9
2018-06-12T00:22:25.548Z,29.3
2018-06-12T00:23:27.207Z,29.8
2018-06-12T00:24:28.872Z,30.2
2018-06-12T00:25:30.522Z,30.3
2018-06-12T00:26:32.181Z,30.5
2018-06-12T00:27:33.836Z,30.7
2018-06-12T00:28:35.496Z,30.3
2018-06-12T00:29:37.144Z,30.6
2018-06-12T00:30:38.804Z,31.2
2018-06-12T00:31:40.454Z,30.6
2018-06-12T00:32:42.112Z,30.9
2018-06-12T00:33:43.764Z,31.1
2018-06-12T00:34:45.436Z,31.4
2018-06-12T00:35:47.089Z,30.6
2018-06-12T00:36:48.769Z,30.5
2018-06-12T00:37:50.435Z,31.8
2018-06-12T00:38:52.088Z,31.6
2018-06-12T00:39:53.749Z,31.3
2018-06-12T00:40:55.410Z,32.6
2018-06-12T00:41:57.063Z,32.7
2018-06-12T00:42:58.714Z,31.6
2018-06-12T00:44:00.394Z,31.1
2018-06-12T00:45:02.055Z,30.2
2018-06-12T00:46:03.709Z,29.4
2018-06-12T00:47:05.382Z,31.1
2018-06-12T00:48:07.035Z,31.7
2018-06-12T00:49:08.716Z,30.5
2018-06-12T00:50:10.372Z,30.8
2018-06-12T00:51:12.031Z,30.1
2018-06-12T00:52:13.674Z,30.4
2018-06-12T00:53:15.327Z,29.1
2018-06-12T00:54:16.986Z,29.3
2018-06-12T00:55:18.647Z,29.5
2018-06-12T00:56:20.303Z,29.0
2018-06-12T00:57:21.973Z,29.5
2018-06-12T00:58:23.662Z,29.4
2018-06-12T00:59:25.314Z,30.2
2018-06-12T01:00:26.973Z,29.2
2018-06-12T01:01:28.630Z,30.4
2018-06-12T01:02:30.282Z,31.6
2018-06-12T01:03:31.938Z,32.7
2018-06-12T01:04:33.600Z,31.6
2018-06-12T01:05:35.247Z,35.8
2018-06-12T01:06:36.896Z,34.8
2018-06-12T01:07:38.548Z,34.8
2018-06-12T01:08:40.269Z,38.5
2018-06-12T01:09:41.925Z,38.6
2018-06-12T01:10:43.574Z,41.0
2018-06-12T01:11:45.225Z,41.7
2018-06-12T01:12:46.881Z,38.9
2018-06-12T01:13:48.528Z,38.7
2018-06-12T01:14:50.189Z,40.2
2018-06-12T01:15:51.842Z,37.9
2018-06-12T01:16:53.499Z,38.8
2018-06-12T01:17:55.148Z,37.6
2018-06-12T01:18:56.810Z,37.0
2018-06-12T01:19:58.457Z,37.4
2018-06-12T01:21:00.116Z,39.9
2018-06-12T01:22:01.769Z,40.0
2018-06-12T01:23:03.465Z,39.7
2018-06-12T01:24:05.075Z,39.9
2018-06-12T01:25:06.733Z,38.8
2018-06-12T01:26:08.422Z,38.5
2018-06-12T01:27:10.078Z,39.2
2018-06-12T01:28:11.727Z,38.5
2018-06-12T01:29:13.382Z,37.5
2018-06-12T01:30:15.039Z,38.0
2018-06-12T01:31:16.691Z,37.6
2018-06-12T01:32:18.354Z,37.0
2018-06-12T01:33:20.007Z,36.9
2018-06-12T01:34:21.664Z,37.1
2018-06-12T01:35:23.322Z,37.1
2018-06-12T01:36:24.979Z,38.5
2018-06-12T01:37:26.640Z,38.0
2018-06-12T01:38:28.300Z,37.8
2018-06-12T01:39:29.957Z,37.1
2018-06-12T01:40:31.613Z,37.2
2018-06-12T01:41:33.266Z,36.2
2018-06-12T01:42:34.920Z,36.1
2018-06-12T01:43:36.584Z,36.1
2018-06-12T01:44:38.237Z,36.8
2018-06-12T01:45:39.898Z,35.2
2018-06-12T01:46:41.549Z,36.1
2018-06-12T01:47:43.203Z,37.0
2018-06-12T01:48:44.857Z,35.8
2018-06-12T01:49:46.516Z,37.2
2018-06-12T01:50:48.169Z,37.2
2018-06-12T01:51:49.820Z,37.2
2018-06-12T01:52:51.469Z,38.0
2018-06-12T01:53:53.124Z,37.3
2018-06-12T01:54:54.783Z,37.5
2018-06-12T02:01:14.668Z,36.6
2018-06-12T02:02:16.321Z,36.5
2018-06-12T02:04:08.218Z,36.6
2018-06-12T02:05:09.881Z,37.3
2018-06-12T02:06:11.536Z,37.2
2018-06-12T02:07:13.193Z,37.3
2018-06-12T02:08:14.849Z,36.6
2018-06-12T02:09:16.502Z,37.2
2018-06-12T02:10:18.168Z,37.2
2018-06-12T02:11:19.824Z,37.1
2018-06-12T02:12:21.479Z,35.3
2018-06-12T02:13:23.126Z,36.0
2018-06-12T02:14:24.780Z,36.4
2018-06-12T02:15:26.430Z,37.1
2018-06-12T02:16:28.092Z,36.0
2018-06-12T02:17:29.737Z,35.8
2018-06-12T02:18:31.396Z,34.5
2018-06-12T02:19:33.043Z,34.7
2018-06-12T02:20:34.698Z,34.7
2018-06-12T02:21:36.359Z,33.4
2018-06-12T02:22:38.020Z,35.0
2018-06-12T02:23:39.669Z,33.8
2018-06-12T02:24:41.322Z,34.6
2018-06-12T02:25:42.977Z,34.6
2018-06-12T02:26:44.633Z,34.0
2018-06-12T02:27:46.286Z,32.9
2018-06-12T02:28:47.941Z,34.9
2018-06-12T02:29:49.600Z,34.4
2018-06-12T02:30:51.261Z,32.8
2018-06-12T02:31:52.909Z,34.0
2018-06-12T02:32:54.559Z,32.0
2018-06-12T02:33:56.210Z,31.6
2018-06-12T02:34:57.866Z,32.3
2018-06-12T02:35:59.527Z,31.3
2018-06-12T02:37:01.211Z,31.0
2018-06-12T02:38:02.865Z,31.6
2018-06-12T02:39:04.525Z,31.7
2018-06-12T02:40:06.197Z,32.0
2018-06-12T02:41:07.844Z,30.8
2018-06-12T02:42:09.495Z,30.4
2018-06-12T02:43:11.148Z,30.7
2018-06-12T02:44:12.815Z,30.6
2018-06-12T02:45:14.461Z,29.2
2018-06-12T02:46:16.114Z,31.8
2018-06-12T02:47:17.781Z,30.5
2018-06-12T02:48:19.440Z,30.7
2018-06-12T02:49:21.089Z,30.2
2018-06-12T02:50:22.743Z,28.5
2018-06-12T02:51:24.404Z,29.3
2018-06-12T02:52:26.067Z,29.4
2018-06-12T02:53:27.718Z,29.9
2018-06-12T02:54:29.373Z,29.3
2018-06-12T02:55:31.031Z,28.6
2018-06-12T02:56:32.698Z,29.5
2018-06-12T02:57:34.355Z,29.2
2018-06-12T02:58:36.008Z,29.3
2018-06-12T02:59:37.673Z,29.4
2018-06-12T03:00:39.324Z,29.3
2018-06-12T03:01:40.996Z,29.3
2018-06-12T03:02:42.646Z,29.1
2018-06-12T03:03:44.311Z,29.1
2018-06-12T03:04:45.959Z,28.1
2018-06-12T03:05:47.619Z,27.8
2018-06-12T03:06:49.279Z,28.3
2018-06-12T03:07:50.943Z,28.8
2018-06-12T03:08:52.599Z,26.9
2018-06-12T03:09:54.260Z,26.8
2018-06-12T03:10:55.917Z,26.2
2018-06-12T03:11:57.572Z,26.1
2018-06-12T03:12:59.229Z,25.3
2018-06-12T03:14:00.908Z,25.4
2018-06-12T03:15:02.568Z,24.4
2018-06-12T03:16:04.233Z,22.5
2018-06-12T03:17:05.924Z,25.1
2018-06-12T03:18:07.575Z,22.4
2018-06-12T03:19:09.224Z,25.2
2018-06-12T03:20:10.885Z,21.0
2018-06-12T03:21:12.548Z,21.6
2018-06-12T03:22:14.208Z,21.6
2018-06-12T03:23:15.892Z,21.8
2018-06-12T03:24:17.522Z,23.1
2018-06-12T03:25:19.181Z,22.3
2018-06-12T03:26:20.841Z,22.1
2018-06-12T03:27:22.502Z,21.6
2018-06-12T03:28:24.155Z,21.3
2018-06-12T03:29:25.817Z,21.2
2018-06-12T03:30:27.469Z,21.3
2018-06-12T03:31:29.134Z,21.4
2018-06-12T03:32:30.797Z,16.7
2018-06-12T03:33:32.456Z,14.1
2018-06-12T03:34:34.127Z,11.4
2018-06-12T03:35:35.773Z,7.4
2018-06-12T03:36:37.448Z,7.0
2018-06-12T03:37:39.098Z,6.8
2018-06-12T03:38:40.756Z,4.0
2018-06-12T03:39:42.427Z,2.2
2018-06-12T03:40:44.067Z,0.8
2018-06-12T03:41:45.734Z,1.1
2018-06-12T03:42:47.379Z,0.0
2018-06-12T03:43:49.033Z,2.1
2018-06-12T03:44:50.689Z,0.5
2018-06-12T03:45:52.347Z,2.2
2018-06-12T03:46:53.993Z,0.0
2018-06-12T03:47:55.643Z,0.4
2018-06-12T03:48:57.303Z,2.5
2018-06-12T03:49:58.962Z,0.0
2018-06-12T03:51:00.647Z,0.0
2018-06-12T03:52:02.301Z,0.7
2018-06-12T03:53:03.952Z,0.3
2018-06-12T03:54:05.640Z,0.0
2018-06-12T03:55:07.301Z,0.0
2018-06-12T03:56:08.968Z,0.0
2018-06-12T03:57:10.632Z,0.0
2018-06-12T03:58:12.290Z,0.0
2018-06-12T03:59:13.959Z,0.0
2018-06-12T04:00:15.609Z,0.0
2018-06-12T04:01:17.270Z,0.0
2018-06-12T04:02:18.940Z,0.0
2018-06-12T04:03:20.601Z,0.0
2018-06-12T04:04:22.306Z,0.0
2018-06-12T04:05:23.981Z,0.0
2018-06-12T04:06:25.640Z,0.0
2018-06-12T04:07:27.292Z,0.0
2018-06-12T04:08:28.951Z,0.0
2018-06-12T04:09:30.609Z,0.0
2018-06-12T04:10:32.260Z,0.0
2018-06-12T04:11:33.942Z,0.0
2018-06-12T04:12:35.593Z,0.0
2018-06-12T04:13:37.272Z,0.0
2018-06-12T04:14:38.924Z,0.0
2018-06-12T04:15:40.581Z,0.0
2018-06-12T04:16:42.234Z,0.0
2018-06-12T04:17:43.893Z,0.0
2018-06-12T04:18:45.555Z,0.0
2018-06-12T04:19:47.218Z,0.0
2018-06-12T04:20:48.883Z,0.0
2018-06-12T04:21:50.538Z,0.0
2018-06-12T04:22:52.196Z,0.0
2018-06-12T04:23:53.867Z,0.0
2018-06-12T04:24:55.526Z,0.0
2018-06-12T04:25:57.189Z,0.0
2018-06-12T04:26:58.851Z,0.0
2018-06-12T04:28:00.527Z,0.0
2018-06-12T04:29:02.190Z,0.0
2018-06-12T04:30:03.849Z,0.0
2018-06-12T04:31:05.505Z,0.0
2018-06-12T04:32:07.171Z,0.0
2018-06-12T04:33:08.830Z,0.0
2018-06-12T04:34:10.494Z,0.0
2018-06-12T04:35:12.173Z,0.0
2018-06-12T04:36:13.831Z,0.0
2018-06-12T04:37:15.493Z,0.0
2018-06-12T04:38:17.152Z,0.0
2018-06-12T04:39:18.813Z,0.0
2018-06-12T04:40:20.471Z,0.0
2018-06-12T04:41:22.133Z,0.0
2018-06-12T04:42:23.789Z,0.0
2018-06-12T04:43:25.496Z,0.0
2018-06-12T04:44:27.104Z,2.8
2018-06-12T04:45:28.765Z,5.9
2018-06-12T04:46:30.417Z,3.8
2018-06-12T04:47:32.080Z,4.1
2018-06-12T04:48:33.741Z,4.4
2018-06-12T04:49:35.411Z,5.9
2018-06-12T04:50:37.097Z,8.7
2018-06-12T04:51:38.769Z,9.2
2018-06-12T04:52:40.422Z,8.1
2018-06-12T04:53:42.080Z,9.9
2018-06-12T04:54:43.760Z,10.0
2018-06-12T04:55:45.416Z,17.2
2018-06-12T04:56:47.073Z,13.4
2018-06-12T04:57:48.739Z,14.3
2018-06-12T04:58:50.409Z,13.3
2018-06-12T04:59:52.074Z,14.8
2018-06-12T05:00:53.805Z,12.5
2018-06-12T05:01:55.464Z,13.0
2018-06-12T05:02:57.135Z,16.3
2018-06-12T05:03:58.835Z,16.4
2018-06-12T05:05:00.863Z,12.8
2018-06-12T05:06:02.526Z,17.4
2018-06-12T05:07:04.200Z,15.5
2018-06-12T05:08:05.859Z,16.7
2018-06-12T05:09:07.516Z,14.3
2018-06-12T05:10:09.178Z,14.7
2018-06-12T05:11:11.232Z,15.9
2018-06-12T05:12:12.900Z,14.5
2018-06-12T05:13:14.558Z,14.4
2018-06-12T05:14:16.217Z,15.5
2018-06-12T05:15:17.876Z,17.3
2018-06-12T05:16:19.543Z,18.7
2018-06-12T05:17:21.209Z,15.7
2018-06-12T05:18:22.894Z,17.7
2018-06-12T05:19:24.557Z,18.6
2018-06-12T05:20:26.236Z,16.9
2018-06-12T05:21:27.896Z,16.2
2018-06-12T05:22:29.560Z,17.1
2018-06-12T05:23:31.222Z,18.8
2018-06-12T05:24:32.882Z,19.6
2018-06-12T05:25:34.561Z,21.3
2018-06-12T05:26:36.226Z,23.0
2018-06-12T05:27:37.874Z,24.2
2018-06-12T05:28:39.561Z,23.8
2018-06-12T05:29:41.219Z,24.1
2018-06-12T05:30:42.889Z,23.2
2018-06-12T05:31:44.565Z,24.4
2018-06-12T05:32:46.232Z,26.4
2018-06-12T05:33:47.888Z,23.7
2018-06-12T05:34:49.555Z,26.4
2018-06-12T05:35:51.223Z,26.5
2018-06-12T05:36:52.896Z,25.4
2018-06-12T05:37:54.552Z,25.7
2018-06-12T05:38:56.212Z,25.9
2018-06-12T05:39:57.878Z,30.0
2018-06-12T05:40:59.542Z,29.2
2018-06-12T05:42:01.232Z,29.4
2018-06-12T05:43:02.883Z,30.1
2018-06-12T05:44:04.543Z,31.2
2018-06-12T05:45:06.207Z,33.3
2018-06-12T05:46:07.874Z,33.5
2018-06-12T05:47:09.538Z,30.2
2018-06-12T05:48:11.199Z,29.0
2018-06-12T05:49:12.875Z,32.8
2018-06-12T05:50:14.539Z,31.2
2018-06-12T05:51:16.198Z,31.1
2018-06-12T05:52:17.859Z,30.3
2018-06-12T05:53:19.518Z,34.4
2018-06-12T05:54:21.186Z,33.4
2018-06-12T05:55:22.854Z,34.2
2018-06-12T06:02:03.412Z,39.1
2018-06-12T06:03:05.073Z,40.4
2018-06-12T06:04:56.872Z,38.7
2018-06-12T06:05:58.534Z,39.0
2018-06-12T06:07:50.367Z,37.1
2018-06-12T06:08:52.035Z,38.2
2018-06-12T06:10:43.958Z,39.8
2018-06-12T06:11:45.586Z,38.5
2018-06-12T06:13:37.491Z,41.1
2018-06-12T06:14:39.245Z,43.0
2018-06-12T06:16:31.127Z,40.9
2018-06-12T06:17:32.787Z,45.8
2018-06-12T06:18:34.645Z,45.8
2018-06-12T06:19:36.314Z,48.2
2018-06-12T06:20:38.001Z,53.3
2018-06-12T06:21:39.677Z,52.9
2018-06-12T06:22:41.367Z,58.7
2018-06-12T06:23:43.002Z,59.9
2018-06-12T06:24:44.659Z,58.3
2018-06-12T06:25:46.324Z,62.3
2018-06-12T06:26:47.988Z,62.6
2018-06-12T06:27:49.659Z,62.4
2018-06-12T06:28:51.316Z,59.5
2018-06-12T06:29:52.995Z,65.5
2018-06-12T06:30:54.667Z,69.4
2018-06-12T06:31:56.327Z,65.6
2018-06-12T06:32:57.993Z,68.2
2018-06-12T06:33:59.655Z,66.2
2018-06-12T06:35:01.338Z,66.9
2018-06-12T06:36:03.011Z,67.2
2018-06-12T06:37:04.675Z,69.0
2018-06-12T06:38:06.346Z,65.7
2018-06-12T06:39:08.004Z,67.9
2018-06-12T06:40:09.672Z,73.4
2018-06-12T06:41:11.356Z,69.3
2018-06-12T06:42:13.007Z,68.1
2018-06-12T06:43:14.679Z,69.7
2018-06-12T06:44:16.349Z,68.4
2018-06-12T06:45:18.017Z,69.3
2018-06-12T06:46:19.678Z,66.6
2018-06-12T06:47:21.347Z,68.0
2018-06-12T06:48:23.022Z,71.7
2018-06-12T06:49:24.679Z,70.2
2018-06-12T06:50:26.358Z,72.2
2018-06-12T06:51:28.025Z,69.9
2018-06-12T06:52:29.684Z,71.3
2018-06-12T06:53:31.344Z,69.8
2018-06-12T06:54:33.012Z,72.7
2018-06-12T06:55:34.671Z,71.5
2018-06-12T06:56:36.326Z,73.4
2018-06-12T06:57:37.987Z,72.7
2018-06-12T06:58:39.693Z,74.2
2018-06-12T06:59:41.354Z,71.1
2018-06-12T07:00:43.011Z,73.0
2018-06-12T07:01:44.668Z,73.5
2018-06-12T07:02:46.332Z,73.5
2018-06-12T07:03:48.006Z,72.6
2018-06-12T07:04:49.661Z,73.0
2018-06-12T07:05:51.325Z,72.6
2018-06-12T07:06:52.997Z,73.2
2018-06-12T07:07:54.658Z,71.9
2018-06-12T07:08:56.318Z,72.7
2018-06-12T07:09:57.994Z,73.8
2018-06-12T07:10:59.657Z,72.2
2018-06-12T07:12:01.331Z,72.4
2018-06-12T07:13:02.990Z,73.5
2018-06-12T07:14:04.667Z,72.5
2018-06-12T07:15:06.328Z,73.8
2018-06-12T07:16:07.995Z,72.0
2018-06-12T07:17:09.648Z,72.6
2018-06-12T07:18:11.312Z,73.6
2018-06-12T07:19:12.974Z,72.7
2018-06-12T07:20:14.644Z,72.2
2018-06-12T07:21:16.313Z,70.9
2018-06-12T07:22:17.978Z,72.0
2018-06-12T07:23:19.638Z,71.8
2018-06-12T07:24:21.292Z,72.6
2018-06-12T07:25:22.951Z,70.1
2018-06-12T07:26:24.616Z,72.8
2018-06-12T07:27:26.277Z,70.4
2018-06-12T07:28:27.935Z,68.8
2018-06-12T07:29:29.702Z,70.1
2018-06-12T07:30:31.372Z,65.5
2018-06-12T07:31:33.033Z,61.7
2018-06-12T07:32:34.702Z,57.5
2018-06-12T07:33:36.372Z,60.1
2018-06-12T07:34:38.041Z,55.8
2018-06-12T07:35:39.698Z,61.3
2018-06-12T07:36:41.363Z,52.0
2018-06-12T07:37:43.174Z,45.5
2018-06-12T07:38:44.706Z,47.5
2018-06-12T07:39:46.384Z,52.0
2018-06-12T07:40:48.055Z,42.1
2018-06-12T07:41:49.702Z,46.2
2018-06-12T07:42:51.362Z,53.1
2018-06-12T07:43:53.026Z,51.0
2018-06-12T07:44:54.681Z,48.9
2018-06-12T07:45:56.347Z,49.6
2018-06-12T07:46:58.003Z,44.2
2018-06-12T07:47:59.666Z,55.9
2018-06-12T07:49:01.346Z,48.8
2018-06-12T07:50:03.019Z,47.4
2018-06-12T07:51:04.675Z,47.3
2018-06-12T07:52:06.334Z,47.0
2018-06-12T07:53:07.990Z,44.2
2018-06-12T07:54:09.651Z,41.6
2018-06-12T07:55:11.322Z,33.6
2018-06-12T07:56:12.978Z,44.0
2018-06-12T07:57:14.652Z,34.7
2018-06-12T07:58:16.319Z,31.9
2018-06-12T07:59:17.978Z,43.3
2018-06-12T08:00:19.636Z,32.3
2018-06-12T08:01:21.292Z,28.7
2018-06-12T08:02:22.966Z,36.5
2018-06-12T08:03:24.625Z,30.5
2018-06-12T08:04:26.292Z,24.1
2018-06-12T08:05:27.954Z,26.2
2018-06-12T08:06:29.622Z,26.9
2018-06-12T08:07:31.280Z,38.9
2018-06-12T08:08:32.934Z,29.7
2018-06-12T08:09:34.593Z,14.5
2018-06-12T08:10:36.259Z,21.7
2018-06-12T08:11:37.926Z,31.5
2018-06-12T08:12:39.584Z,20.5
2018-06-12T08:13:41.258Z,27.5
2018-06-12T08:14:42.917Z,18.5
2018-06-12T08:15:44.600Z,15.5
2018-06-12T08:16:46.279Z,13.9
2018-06-12T08:17:47.948Z,17.1
2018-06-12T08:18:49.604Z,6.2
2018-06-12T08:19:51.270Z,12.5
2018-06-12T08:20:52.932Z,16.4
2018-06-12T08:21:54.601Z,13.4
2018-06-12T08:22:56.263Z,14.3
2018-06-12T08:23:57.999Z,14.9
2018-06-12T08:24:59.600Z,21.6
2018-06-12T08:26:01.290Z,19.3
2018-06-12T08:27:02.953Z,18.6
2018-06-12T08:28:04.608Z,18.2
2018-06-12T08:29:06.264Z,21.2
2018-06-12T08:30:07.949Z,18.2
2018-06-12T08:31:09.591Z,10.3
2018-06-12T08:32:11.248Z,11.4
2018-06-12T08:33:12.928Z,10.0
2018-06-12T08:34:14.589Z,11.4
2018-06-12T08:35:16.251Z,12.4
2018-06-12T08:36:17.915Z,10.0
2018-06-12T08:37:19.571Z,21.4
2018-06-12T08:38:21.250Z,23.1
2018-06-12T08:39:22.922Z,19.1
2018-06-12T08:40:24.576Z,21.1
2018-06-12T08:41:26.249Z,27.4
2018-06-12T08:42:27.909Z,24.7
2018-06-12T08:43:30.383Z,19.0
2018-06-12T08:44:32.053Z,24.8
2018-06-12T08:45:33.713Z,27.0
2018-06-12T08:46:35.375Z,32.4
2018-06-12T08:47:37.039Z,33.5
2018-06-12T08:48:38.705Z,33.3
2018-06-12T08:49:40.378Z,45.4
2018-06-12T08:50:42.031Z,41.5
2018-06-12T08:51:43.694Z,34.0
2018-06-12T08:52:45.372Z,32.7
2018-06-12T08:53:47.047Z,34.1
2018-06-12T08:54:48.717Z,31.7
2018-06-12T08:55:50.373Z,40.9
2018-06-12T08:56:52.032Z,41.5
2018-06-12T08:57:53.693Z,38.6
2018-06-12T08:58:55.365Z,37.1
2018-06-12T08:59:57.013Z,63.5
2018-06-12T09:00:58.684Z,50.9
2018-06-12T09:02:00.368Z,57.3
2018-06-12T09:03:02.037Z,48.1
2018-06-12T09:04:03.695Z,57.8
2018-06-12T09:05:05.360Z,63.0
2018-06-12T09:06:07.028Z,57.2
2018-06-12T09:07:08.686Z,62.5
2018-06-12T09:08:10.351Z,62.2
2018-06-12T09:09:12.014Z,55.8
2018-06-12T09:10:13.674Z,58.5
2018-06-12T09:11:15.344Z,59.6
2018-06-12T09:12:17.016Z,47.5
2018-06-12T09:13:18.682Z,54.1
2018-06-12T09:14:20.347Z,65.2
2018-06-12T09:15:22.009Z,61.5
2018-06-12T09:16:23.678Z,63.3
2018-06-12T09:17:25.339Z,59.7
2018-06-12T09:18:27.001Z,53.9
2018-06-12T09:19:28.707Z,63.1
2018-06-12T09:20:30.340Z,60.8
2018-06-12T09:21:32.012Z,64.3
2018-06-12T09:22:33.682Z,57.7
2018-06-12T09:23:35.426Z,63.1
2018-06-12T09:24:37.093Z,65.4
2018-06-12T09:25:38.763Z,65.9
2018-06-12T09:26:40.429Z,65.5
2018-06-12T09:27:42.096Z,58.6
2018-06-12T09:28:43.772Z,64.4
2018-06-12T09:29:45.435Z,64.5
2018-06-12T09:30:47.123Z,61.8
2018-06-12T09:31:48.793Z,73.4
2018-06-12T09:32:50.463Z,69.1
2018-06-12T09:33:52.125Z,67.9
2018-06-12T09:34:53.802Z,66.5
2018-06-12T09:35:55.470Z,73.8
2018-06-12T09:36:57.147Z,66.3
2018-06-12T09:37:58.821Z,75.0
2018-06-12T09:39:00.502Z,70.1
2018-06-12T09:40:02.169Z,72.8
2018-06-12T09:41:03.841Z,72.0
2018-06-12T09:42:05.522Z,73.0
2018-06-12T09:43:07.176Z,71.1
2018-06-12T09:44:08.840Z,70.9
2018-06-12T09:45:10.516Z,71.9
2018-06-12T09:46:12.182Z,70.9
2018-06-12T09:47:13.856Z,68.5
2018-06-12T09:48:15.541Z,69.3
2018-06-12T09:49:17.198Z,70.6
2018-06-12T09:50:18.869Z,70.2
2018-06-12T09:51:20.543Z,70.7
2018-06-12T09:52:22.215Z,70.3
2018-06-12T09:53:23.890Z,70.1
2018-06-12T09:54:25.565Z,69.1
2018-06-12T09:55:27.225Z,69.6
2018-06-12T10:01:28.840Z,70.7
2018-06-12T10:02:30.504Z,71.3
2018-06-12T10:04:22.418Z,70.8
2018-06-12T10:05:24.091Z,70.3
2018-06-12T10:07:15.959Z,75.1
2018-06-12T10:08:17.632Z,71.0
2018-06-12T10:10:09.549Z,69.2
2018-06-12T10:11:11.221Z,67.2
2018-06-12T10:13:03.094Z,69.7
2018-06-12T10:14:04.767Z,70.4
2018-06-12T10:15:56.706Z,70.9
2018-06-12T10:16:58.367Z,70.6
2018-06-12T10:18:50.310Z,70.2
2018-06-12T10:19:51.921Z,72.7
2018-06-12T10:20:53.585Z,71.5
2018-06-12T10:21:55.259Z,70.9
2018-06-12T10:22:56.938Z,71.8
2018-06-12T10:23:58.607Z,70.0
2018-06-12T10:25:00.306Z,70.7
2018-06-12T10:26:01.966Z,71.1
2018-06-12T10:27:03.632Z,69.1
2018-06-12T10:28:05.302Z,67.3
2018-06-12T10:29:06.973Z,69.4
2018-06-12T10:30:08.639Z,70.5
2018-06-12T10:31:10.307Z,70.3
2018-06-12T10:32:11.978Z,69.4
2018-06-12T10:33:13.647Z,69.6
2018-06-12T10:34:15.312Z,70.9
2018-06-12T10:35:16.977Z,71.3
2018-06-12T10:36:18.645Z,71.3
2018-06-12T10:37:20.405Z,69.4
2018-06-12T10:38:21.974Z,68.5
2018-06-12T10:39:23.648Z,68.3
2018-06-12T10:40:25.317Z,71.1
2018-06-12T10:41:26.979Z,72.9
2018-06-12T10:42:28.646Z,72.4
2018-06-12T10:43:30.324Z,71.8
2018-06-12T10:44:31.997Z,68.7
2018-06-12T10:45:33.693Z,71.1
2018-06-12T10:46:35.324Z,69.8
2018-06-12T10:47:36.992Z,71.2
2018-06-12T10:48:38.667Z,71.2
2018-06-12T10:49:40.326Z,68.6
2018-06-12T10:50:41.997Z,69.9
2018-06-12T10:51:43.665Z,71.0
2018-06-12T10:52:45.334Z,69.6
2018-06-12T10:53:46.995Z,71.3
2018-06-12T10:54:48.670Z,69.2
2018-06-12T10:55:50.344Z,70.1
2018-06-12T10:56:52.007Z,69.3
2018-06-12T10:57:53.685Z,67.1
2018-06-12T10:58:55.395Z,68.3
2018-06-12T10:59:57.067Z,66.9
2018-06-12T11:00:58.733Z,69.0
2018-06-12T11:02:00.459Z,68.4
2018-06-12T11:03:02.218Z,71.1
2018-06-12T11:04:03.962Z,69.2
2018-06-12T11:05:05.659Z,68.2
2018-06-12T11:06:07.317Z,69.2
2018-06-12T11:07:09.007Z,69.6
2018-06-12T11:08:10.694Z,69.2
2018-06-12T11:09:12.397Z,69.5
2018-06-12T11:10:14.055Z,69.9
2018-06-12T11:11:15.733Z,66.7
2018-06-12T11:12:17.393Z,67.5
2018-06-12T11:13:19.083Z,69.0
2018-06-12T11:14:20.757Z,68.7
2018-06-12T11:15:22.419Z,72.5
2018-06-12T11:16:24.090Z,71.6
2018-06-12T11:17:25.758Z,72.7
2018-06-12T11:18:27.429Z,70.1
2018-06-12T11:19:29.100Z,70.7
2018-06-12T11:20:30.773Z,70.7
2018-06-12T11:21:32.452Z,70.9
2018-06-12T11:22:34.120Z,71.0
2018-06-12T11:23:35.783Z,70.3
2018-06-12T11:24:37.442Z,69.4
2018-06-12T11:25:39.164Z,68.4
2018-06-12T11:26:41.661Z,69.4
2018-06-12T11:27:43.332Z,68.9
2018-06-12T11:28:45.040Z,67.4
2018-06-12T11:29:46.706Z,66.7
2018-06-12T11:30:48.369Z,70.2
2018-06-12T11:31:50.036Z,70.8
2018-06-12T11:32:51.707Z,65.1
2018-06-12T11:33:53.377Z,62.2
2018-06-12T11:34:55.036Z,62.9
2018-06-12T11:35:56.706Z,60.2
2018-06-12T11:36:58.375Z,57.3
2018-06-12T11:38:00.083Z,51.5
2018-06-12T11:39:01.746Z,54.5
2018-06-12T11:40:03.409Z,53.6
2018-06-12T11:41:05.068Z,58.0
2018-06-12T11:42:06.735Z,55.8
2018-06-12T11:43:08.414Z,57.6
2018-06-12T11:44:10.071Z,71.0
2018-06-12T11:45:11.729Z,62.3
2018-06-12T11:46:13.394Z,57.9
2018-06-12T11:47:15.055Z,60.6
2018-06-12T11:48:16.726Z,64.5
2018-06-12T11:49:18.401Z,59.9
2018-06-12T11:50:20.061Z,50.3
2018-06-12T11:51:21.731Z,50.8
2018-06-12T11:52:23.401Z,48.0
2018-06-12T11:53:25.069Z,49.4
2018-06-12T11:54:26.734Z,41.1
2018-06-12T11:55:28.406Z,45.6
2018-06-12T11:56:30.067Z,49.1
2018-06-12T11:57:31.737Z,51.5
2018-06-12T11:58:33.424Z,52.8
2018-06-12T11:59:35.122Z,44.9
2018-06-12T12:00:36.787Z,45.6
2018-06-12T12:01:38.456Z,46.0
2018-06-12T12:02:40.133Z,32.4
2018-06-12T12:03:41.790Z,18.8
2018-06-12T12:04:43.454Z,19.0
2018-06-12T12:05:45.120Z,8.3
2018-06-12T12:06:46.798Z,23.2
2018-06-12T12:07:48.457Z,41.8
2018-06-12T12:08:51.056Z,26.9
2018-06-12T12:09:52.731Z,31.9
2018-06-12T12:10:54.396Z,24.4
2018-06-12T12:11:56.070Z,29.8
2018-06-12T12:12:57.752Z,26.0
2018-06-12T12:13:59.420Z,34.1
2018-06-12T12:15:01.102Z,20.5
2018-06-12T12:16:02.768Z,28.3
2018-06-12T12:17:04.429Z,35.2
2018-06-12T12:18:06.092Z,27.6
2018-06-12T12:19:07.771Z,28.5
2018-06-12T12:20:09.436Z,33.2
2018-06-12T12:21:11.107Z,36.2
2018-06-12T12:22:12.768Z,34.5
2018-06-12T12:23:14.439Z,29.4
2018-06-12T12:24:16.104Z,33.5
2018-06-12T12:25:17.778Z,32.8
2018-06-12T12:26:19.455Z,27.8
2018-06-12T12:27:21.127Z,33.8
2018-06-12T12:28:22.808Z,26.4
2018-06-12T12:29:24.475Z,37.7
2018-06-12T12:30:26.147Z,42.9
2018-06-12T12:31:27.821Z,40.5
2018-06-12T12:32:29.493Z,46.9
2018-06-12T12:33:31.160Z,39.0
2018-06-12T12:34:32.842Z,52.2
2018-06-12T12:35:34.514Z,45.2
2018-06-12T12:36:36.178Z,47.3
2018-06-12T12:37:37.854Z,54.2
2018-06-12T12:38:39.587Z,48.4
2018-06-12T12:39:41.254Z,60.3
2018-06-12T12:40:42.939Z,54.0
2018-06-12T12:41:44.625Z,54.2
2018-06-12T12:42:46.300Z,53.2
2018-06-12T12:43:47.967Z,51.4
2018-06-12T12:44:50.605Z,53.6
2018-06-12T12:45:52.274Z,50.1
2018-06-12T12:46:53.947Z,49.6
2018-06-12T12:47:55.631Z,41.3
2018-06-12T12:48:57.317Z,51.3
2018-06-12T12:49:59.001Z,43.2
2018-06-12T12:51:00.693Z,41.0
2018-06-12T12:52:02.373Z,35.5
2018-06-12T12:53:04.054Z,43.5
2018-06-12T12:54:05.710Z,46.6
2018-06-12T12:55:07.374Z,48.5
2018-06-12T12:56:09.036Z,48.0
2018-06-12T12:57:10.708Z,45.9
2018-06-12T12:58:12.409Z,42.7
2018-06-12T12:59:14.088Z,44.1
2018-06-12T13:00:15.758Z,50.9
2018-06-12T13:01:17.416Z,52.9
2018-06-12T13:02:19.092Z,54.0
2018-06-12T13:03:20.765Z,56.0
2018-06-12T13:04:22.434Z,54.7
2018-06-12T13:05:24.110Z,56.8
2018-06-12T13:06:25.783Z,66.4
2018-06-12T13:07:27.446Z,65.9
2018-06-12T13:08:29.118Z,60.6
2018-06-12T13:09:30.780Z,53.8
2018-06-12T13:10:32.453Z,58.9
2018-06-12T13:11:34.128Z,54.6
2018-06-12T13:12:35.800Z,60.5
2018-06-12T13:13:37.466Z,48.7
2018-06-12T13:14:39.133Z,47.8
2018-06-12T13:15:40.812Z,48.2
2018-06-12T13:16:42.479Z,41.8
2018-06-12T13:17:44.148Z,35.7
2018-06-12T13:18:46.774Z,47.0
2018-06-12T13:19:48.440Z,48.8
2018-06-12T13:20:50.105Z,45.6
2018-06-12T13:21:51.775Z,34.1
2018-06-12T13:22:53.452Z,31.5
2018-06-12T13:23:55.161Z,28.2
2018-06-12T13:24:56.820Z,29.3
2018-06-12T13:25:58.498Z,37.1
2018-06-12T13:27:00.160Z,27.6
2018-06-12T13:28:01.827Z,34.7
2018-06-12T13:29:03.497Z,42.9
2018-06-12T13:30:05.162Z,37.2
2018-06-12T13:31:06.832Z,37.9
2018-06-12T13:32:08.507Z,46.0
2018-06-12T13:33:10.188Z,49.5
2018-06-12T13:34:11.858Z,34.7
2018-06-12T13:35:13.525Z,47.4
2018-06-12T13:36:15.191Z,44.4
2018-06-12T13:37:16.859Z,37.7
2018-06-12T13:38:19.371Z,47.4
2018-06-12T13:39:21.037Z,42.2
2018-06-12T13:40:22.703Z,53.5
2018-06-12T13:41:24.363Z,42.2
2018-06-12T13:42:26.030Z,32.2
2018-06-12T13:43:27.912Z,39.6
2018-06-12T13:44:29.571Z,37.9
2018-06-12T13:45:31.438Z,46.6
2018-06-12T13:46:33.162Z,41.9
2018-06-12T13:47:35.001Z,41.4
2018-06-12T13:48:36.971Z,43.2
2018-06-12T13:49:38.873Z,51.9
2018-06-12T13:50:40.691Z,49.3
2018-06-12T13:51:42.401Z,61.6
2018-06-12T13:52:44.939Z,58.6
2018-06-12T13:53:47.249Z,58.1
2018-06-12T13:54:48.959Z,51.5
2018-06-12T14:01:06.310Z,64.4
2018-06-12T14:02:08.313Z,64.6
2018-06-12T14:03:09.988Z,58.6
2018-06-12T14:04:12.072Z,60.2
2018-06-12T14:05:14.110Z,60.2
2018-06-12T14:06:15.900Z,61.6
2018-06-12T14:07:17.618Z,65.7
2018-06-12T14:08:19.605Z,63.9
2018-06-12T14:09:21.261Z,64.7
2018-06-12T14:10:22.927Z,64.7
2018-06-12T14:11:24.786Z,64.9
2018-06-12T14:12:26.457Z,64.4
2018-06-12T14:13:28.161Z,65.6
2018-06-12T14:14:29.804Z,70.8
2018-06-12T14:15:31.481Z,67.9